Ana Sayfa
METAR-TAF:

METAR-TAF

Havaalanları :

Franklin Municipal-John Beverly Rose Airport

Franklin, Virginia, Amerika Birleşik Devletleri

Enlem: 36-42N, Boylam: 076-54W, yükseklik: 12 m

Güncel hava durumu gözlemi

Rapor saat 22:15 UTC de 46 dakika önce yapıldı.
Sakin rüzgar
Sıcaklık 24°C
Nem 100%
Basınç 1014 hPa
Görüş mesafesi: 16.1 km
2000 ft yükseklikte parçalı bulutlu
3700 ft yükseklikte parçalı bulutlu
7000 ft yükseklikte parçalı çok bulutlu

METAR: KFKN 112215Z AUTO 00000KT 10SM SCT020 SCT037 BKN070 24/24 A2994 RMK AO2 LTG DSNT E SE AND W T02420236

Saat: 19:01 (23:01 UTC)


TAF: eksik

4.000'den fazla havaalanı için hava durumu gözlemleri ve tahminleri (METAR ve TAF raporları).

Kullanılabilir istasyonlar harita üzerinde sarı ve kırmızı noktalarla gösterilir.

İstasyonun adını görmek için fareyi noktanın üzerinde gezdirin.

Sonrasında hava gözlem ve tahminlerini görmek için tıklayın.

Haritayı değiştirmek için: yaklaştırmak için siyah artı işaretli yeşil düğmeye ve uzaklaştırmak için de eksi işaretli düğmeye hızla tıklayın; bitişik haritalar için yeşil okları kullanın.


METAR-TAF: